Time;durP1;ratioP1;P1;durP2;ratioP2;P2;SDS_P1;SDS_P2;PMS_P1;PMS_P2;Temp;Humidity;BMP_temperature;BMP_pressure;BME280_temperature;BME280_humidity;BME280_pressure;Samples;Min_cycle;Max_cycle;Signal;HPM_P1;HPM_P2
2022/12/24 00:01:04;;;;;;;11.45;2.97;;;11.60;99.90;;;;;;5052308;28;20200;-67
2022/12/24 00:03:32;;;;;;;7.50;2.30;;;11.60;99.90;;;;;;5051191;28;20205;-68
2022/12/24 00:06:04;;;;;;;9.48;2.20;;;11.60;99.90;;;;;;5052003;28;20205;-67
2022/12/24 00:08:32;;;;;;;9.68;2.03;;;11.70;99.90;;;;;;5052150;28;20205;-67
2022/12/24 00:11:01;;;;;;;17.50;2.92;;;11.80;99.90;;;;;;5052239;28;20205;-68
2022/12/24 00:13:30;;;;;;;9.43;2.47;;;11.90;99.90;;;;;;5056508;28;20565;-68
2022/12/24 00:15:58;;;;;;;8.25;2.30;;;11.90;99.90;;;;;;5070620;28;20204;-68
2022/12/24 00:18:26;;;;;;;10.25;3.38;;;11.90;99.90;;;;;;5071919;28;20204;-68
2022/12/24 00:20:54;;;;;;;6.38;2.60;;;12.00;99.90;;;;;;5059501;28;20402;-68
2022/12/24 00:23:22;;;;;;;15.40;4.03;;;12.00;99.90;;;;;;5062992;28;20243;-68
2022/12/24 00:25:50;;;;;;;9.82;3.28;;;12.00;99.90;;;;;;5050403;28;20215;-68
2022/12/24 00:28:18;;;;;;;8.10;2.13;;;11.90;99.90;;;;;;5065178;28;20211;-69
2022/12/24 00:30:48;;;;;;;10.93;2.65;;;11.90;99.90;;;;;;5071515;28;20588;-68
2022/12/24 00:33:16;;;;;;;4.47;2.20;;;11.90;99.90;;;;;;5070799;28;20210;-69
2022/12/24 00:35:43;;;;;;;8.02;2.67;;;11.90;99.90;;;;;;5071835;28;20215;-69
2022/12/24 00:38:11;;;;;;;6.70;2.90;;;11.80;99.90;;;;;;5071781;28;20562;-66
2022/12/24 00:40:39;;;;;;;8.05;2.33;;;11.80;99.90;;;;;;5056246;28;20761;-68
2022/12/24 00:43:07;;;;;;;11.67;2.97;;;11.80;99.90;;;;;;5051339;28;20667;-66
2022/12/24 00:45:35;;;;;;;6.30;2.90;;;11.80;99.90;;;;;;5051212;28;21211;-68
2022/12/24 00:48:04;;;;;;;6.43;2.37;;;11.80;99.90;;;;;;5051948;28;20588;-69
2022/12/24 00:50:32;;;;;;;9.00;2.60;;;11.80;99.90;;;;;;5050918;28;21301;-67
2022/12/24 00:53:00;;;;;;;7.53;3.27;;;11.80;99.90;;;;;;5051085;28;20719;-67
2022/12/24 00:55:28;;;;;;;11.90;2.65;;;11.90;99.90;;;;;;5051633;28;20578;-67
2022/12/24 00:57:56;;;;;;;6.40;2.40;;;12.00;99.90;;;;;;5052053;28;20562;-67
2022/12/24 01:00:24;;;;;;;7.40;2.33;;;12.10;99.90;;;;;;5067832;28;20254;-67
2022/12/24 01:02:52;;;;;;;9.10;2.60;;;12.10;99.90;;;;;;5053503;28;20968;-67
2022/12/24 01:05:21;;;;;;;11.80;2.37;;;12.20;99.90;;;;;;5065589;28;20641;-67
2022/12/24 01:07:50;;;;;;;12.80;2.00;;;12.10;99.90;;;;;;5055917;28;20695;-67
2022/12/24 01:10:20;;;;;;;5.20;2.00;;;12.00;99.90;;;;;;5064389;28;21206;-68
2022/12/24 01:12:47;;;;;;;14.40;2.30;;;12.10;99.90;;;;;;5053988;28;21173;-68
2022/12/24 01:15:16;;;;;;;10.82;2.75;;;12.10;99.90;;;;;;5056323;28;20691;-68
2022/12/24 01:17:44;;;;;;;12.35;2.75;;;12.00;99.90;;;;;;5065858;28;20208;-67
2022/12/24 01:20:15;;;;;;;7.38;2.10;;;12.00;99.90;;;;;;5055055;28;20201;-67
2022/12/24 01:22:45;;;;;;;9.60;2.27;;;12.00;99.90;;;;;;5063649;28;20587;-67
2022/12/24 01:25:12;;;;;;;12.73;3.37;;;11.90;99.90;;;;;;5075392;28;20588;-66
2022/12/24 01:27:41;;;;;;;7.60;2.27;;;11.90;99.90;;;;;;5075104;28;20602;-67
2022/12/24 01:30:13;;;;;;;15.10;4.03;;;11.90;99.90;;;;;;5075455;28;20660;-67
2022/12/24 01:32:41;;;;;;;13.20;3.83;;;11.90;99.90;;;;;;5074626;28;20561;-67
2022/12/24 01:35:09;;;;;;;13.82;2.55;;;11.80;99.90;;;;;;5062945;28;20622;-67
2022/12/24 01:37:38;;;;;;;13.13;3.80;;;11.80;99.90;;;;;;5053852;28;20214;-66
2022/12/24 01:45:49;;;;;;;20.20;3.30;;;11.70;99.90;;;;;;5055919;28;20710;-66
2022/12/24 01:48:22;;;;;;;12.15;2.75;;;11.70;99.90;;;;;;5064132;28;20599;-67
2022/12/24 01:51:00;;;;;;;4.85;2.58;;;11.70;99.90;;;;;;5054763;28;20254;-66
2022/12/24 01:53:29;;;;;;;7.22;2.53;;;11.70;99.90;;;;;;5059048;28;20189;-66
2022/12/24 01:55:59;;;;;;;10.90;3.50;;;11.70;99.90;;;;;;5054806;28;20694;-66
2022/12/24 01:58:27;;;;;;;12.73;3.20;;;11.70;99.90;;;;;;5067445;28;21045;-67
2022/12/24 02:00:55;;;;;;;10.43;3.20;;;11.70;99.90;;;;;;5069692;28;20618;-65
2022/12/24 02:03:23;;;;;;;9.30;2.70;;;11.70;99.90;;;;;;5063577;28;20594;-65
2022/12/24 02:05:53;;;;;;;9.13;2.73;;;11.80;99.90;;;;;;5053443;28;20207;-65
2022/12/24 02:08:21;;;;;;;9.97;2.70;;;11.70;99.90;;;;;;5067179;28;20634;-65
2022/12/24 02:10:50;;;;;;;9.95;3.33;;;11.70;99.90;;;;;;5060393;28;20633;-65
2022/12/24 02:13:20;;;;;;;14.20;2.90;;;11.70;99.90;;;;;;5061529;28;20210;-65
2022/12/24 02:16:00;;;;;;;7.73;2.50;;;11.60;99.90;;;;;;5056056;28;20969;-66
2022/12/24 02:18:39;;;;;;;7.00;2.13;;;11.70;99.90;;;;;;5058416;28;21150;-65
2022/12/24 02:21:44;;;;;;;11.27;3.10;;;11.70;99.90;;;;;;5073741;28;20594;-65
2022/12/24 02:24:32;;;;;;;16.08;2.50;;;11.60;99.90;;;;;;5073675;28;20576;-65
2022/12/24 02:27:21;;;;;;;6.40;3.03;;;11.60;99.90;;;;;;5072460;28;20202;-65
2022/12/24 02:30:08;;;;;;;12.50;3.00;;;11.60;99.90;;;;;;5073146;28;20990;-65
2022/12/24 02:32:49;;;;;;;8.23;2.35;;;11.60;99.90;;;;;;5053663;28;20193;-64
2022/12/24 02:35:21;;;;;;;12.00;2.50;;;11.60;99.90;;;;;;5053329;28;20188;-64
2022/12/24 02:37:54;;;;;;;6.15;2.35;;;11.60;99.90;;;;;;5053760;28;20189;-65
2022/12/24 02:40:25;;;;;;;12.82;2.30;;;11.60;99.90;;;;;;5053425;28;20590;-66
2022/12/24 02:42:58;;;;;;;10.52;2.58;;;11.50;99.90;;;;;;5053698;28;20553;-65
2022/12/24 02:45:30;;;;;;;16.60;3.03;;;11.50;99.90;;;;;;5053120;28;20280;-64
2022/12/24 02:47:59;;;;;;;6.13;2.55;;;11.50;99.90;;;;;;5051899;28;20577;-65
2022/12/24 02:50:28;;;;;;;12.50;3.00;;;11.50;99.90;;;;;;5052884;28;20216;-65
2022/12/24 02:52:56;;;;;;;10.32;3.38;;;11.50;99.90;;;;;;5053121;28;20619;-65
2022/12/24 02:55:32;;;;;;;12.88;2.88;;;11.50;99.90;;;;;;5053148;28;20208;-65
2022/12/24 02:58:30;;;;;;;10.60;2.83;;;11.50;99.90;;;;;;5053230;28;20570;-65
2022/12/24 03:01:15;;;;;;;10.90;3.65;;;11.50;99.90;;;;;;5052179;28;20181;-65
2022/12/24 03:03:55;;;;;;;14.13;2.83;;;11.50;99.90;;;;;;5051697;28;20189;-65
2022/12/24 03:06:32;;;;;;;12.65;3.05;;;11.50;99.90;;;;;;5052320;28;20196;-64
2022/12/24 03:09:07;;;;;;;11.70;3.45;;;11.50;99.90;;;;;;5052532;28;20199;-64
2022/12/24 03:11:38;;;;;;;14.13;3.10;;;11.50;99.90;;;;;;5052265;28;20223;-64
2022/12/24 03:14:06;;;;;;;13.07;3.97;;;11.50;99.90;;;;;;5052720;28;20671;-64
2022/12/24 03:16:36;;;;;;;11.93;2.90;;;11.50;99.90;;;;;;5052540;28;20627;-64
2022/12/24 03:19:04;;;;;;;8.50;3.10;;;11.60;99.90;;;;;;5064507;28;20215;-65
2022/12/24 03:21:35;;;;;;;18.45;3.75;;;11.60;99.90;;;;;;5053300;28;20197;-64
2022/12/24 03:24:03;;;;;;;9.90;3.13;;;11.60;99.90;;;;;;5059366;28;20203;-64
2022/12/24 03:26:33;;;;;;;13.95;3.88;;;11.60;99.90;;;;;;5072265;28;20622;-64
2022/12/24 03:29:05;;;;;;;9.03;3.37;;;11.70;99.90;;;;;;5060335;28;20197;-64
2022/12/24 03:31:42;;;;;;;9.95;2.65;;;11.60;99.90;;;;;;5052598;28;20605;-64
2022/12/24 03:34:11;;;;;;;11.52;4.10;;;11.60;99.90;;;;;;5051826;28;20188;-64
2022/12/24 03:36:39;;;;;;;13.50;3.03;;;11.60;99.90;;;;;;5052774;28;20209;-64
2022/12/24 03:39:08;;;;;;;15.07;3.13;;;11.60;99.90;;;;;;5052056;28;20593;-64
2022/12/24 03:41:36;;;;;;;13.25;3.47;;;11.60;99.90;;;;;;5067147;28;20198;-64
2022/12/24 03:44:04;;;;;;;14.82;3.25;;;11.50;99.90;;;;;;5072203;28;21024;-64
2022/12/24 03:46:32;;;;;;;12.23;3.67;;;11.30;99.90;;;;;;5070517;28;20204;-65
2022/12/24 03:49:01;;;;;;;14.57;3.63;;;11.10;99.90;;;;;;5068530;28;20207;-64
2022/12/24 03:51:29;;;;;;;16.90;3.60;;;11.00;99.90;;;;;;5072789;28;20228;-64
2022/12/24 03:53:57;;;;;;;14.68;3.75;;;11.00;99.90;;;;;;5071553;28;20573;-65
2022/12/24 03:56:26;;;;;;;11.35;3.42;;;10.90;99.90;;;;;;5072471;28;20693;-65
2022/12/24 03:58:54;;;;;;;18.50;3.75;;;10.90;99.90;;;;;;5059253;28;20642;-64
2022/12/24 04:01:22;;;;;;;16.45;3.90;;;10.90;99.90;;;;;;5060966;28;20197;-64
2022/12/24 04:03:50;;;;;;;13.32;3.45;;;10.90;99.90;;;;;;5067364;28;20200;-64
2022/12/24 04:06:19;;;;;;;23.90;4.05;;;10.90;99.90;;;;;;5071345;28;20203;-64
2022/12/24 04:08:47;;;;;;;13.18;3.85;;;10.90;99.90;;;;;;5070108;28;20200;-65
2022/12/24 04:11:16;;;;;;;17.30;4.05;;;10.90;99.90;;;;;;5071394;28;20592;-65
2022/12/24 04:13:44;;;;;;;16.27;3.42;;;10.90;99.90;;;;;;5071615;28;20214;-65
2022/12/24 04:16:14;;;;;;;17.02;3.85;;;10.90;99.90;;;;;;5071320;28;20208;-65
2022/12/24 04:18:43;;;;;;;19.98;4.57;;;11.00;99.90;;;;;;5071615;28;20196;-66
2022/12/24 04:21:12;;;;;;;14.40;3.15;;;10.90;99.90;;;;;;5071751;28;20203;-65
2022/12/24 04:23:42;;;;;;;24.63;5.00;;;10.90;99.90;;;;;;5057465;28;20585;-65
2022/12/24 04:26:12;;;;;;;9.48;3.58;;;10.90;99.90;;;;;;5052738;28;20583;-65
2022/12/24 04:28:41;;;;;;;13.70;4.45;;;10.90;99.90;;;;;;5059708;28;20211;-65
2022/12/24 04:31:12;;;;;;;13.95;3.83;;;10.90;99.90;;;;;;5051721;28;20583;-64
2022/12/24 04:33:40;;;;;;;15.32;4.35;;;10.90;99.90;;;;;;5064185;28;20196;-64
2022/12/24 04:36:11;;;;;;;15.25;3.92;;;11.00;99.90;;;;;;5065284;28;20197;-65
2022/12/24 04:38:40;;;;;;;20.35;4.00;;;11.00;99.90;;;;;;5066530;28;20198;-64
2022/12/24 04:41:13;;;;;;;13.73;3.35;;;11.00;99.90;;;;;;5074942;28;20203;-64
2022/12/24 04:43:41;;;;;;;14.13;3.28;;;11.00;99.90;;;;;;5075650;28;20240;-65
2022/12/24 04:46:13;;;;;;;21.15;3.65;;;11.10;99.90;;;;;;5072984;28;20196;-64
2022/12/24 04:48:42;;;;;;;15.75;5.28;;;11.10;99.90;;;;;;5065143;28;20199;-65
2022/12/24 04:51:11;;;;;;;14.90;3.55;;;11.10;99.90;;;;;;5075143;28;20224;-65
2022/12/24 04:53:41;;;;;;;14.93;4.18;;;11.10;99.90;;;;;;5057605;28;20211;-65
2022/12/24 04:56:12;;;;;;;10.43;3.75;;;11.10;99.90;;;;;;5055208;28;20521;-66
2022/12/24 04:58:40;;;;;;;9.88;3.92;;;11.10;99.90;;;;;;5055403;28;20574;-66
2022/12/24 05:01:11;;;;;;;21.98;3.47;;;11.10;99.90;;;;;;5055042;28;20290;-66
2022/12/24 05:03:39;;;;;;;12.98;3.38;;;11.20;99.90;;;;;;5054481;28;20192;-66
2022/12/24 05:06:11;;;;;;;19.17;4.00;;;11.20;99.90;;;;;;5074641;28;20223;-65
2022/12/24 05:08:41;;;;;;;19.83;3.30;;;11.20;99.90;;;;;;5075300;28;20214;-65
2022/12/24 05:11:09;;;;;;;13.40;4.35;;;11.20;99.90;;;;;;5074850;28;20215;-65
2022/12/24 05:13:37;;;;;;;18.08;4.25;;;11.20;99.90;;;;;;5074959;28;20204;-65
2022/12/24 05:16:05;;;;;;;21.48;6.15;;;11.20;99.90;;;;;;5075230;28;20207;-66
2022/12/24 05:18:33;;;;;;;8.85;3.60;;;11.20;99.90;;;;;;5075223;28;20210;-65
2022/12/24 05:21:01;;;;;;;11.70;4.65;;;11.20;99.90;;;;;;5075068;28;20204;-65
2022/12/24 05:26:24;;;;;;;17.65;4.05;;;11.20;99.90;;;;;;5075302;28;20188;-65
2022/12/24 05:28:53;;;;;;;18.83;3.63;;;11.20;99.90;;;;;;5074788;28;20188;-65
2022/12/24 05:31:22;;;;;;;15.70;4.18;;;11.20;99.90;;;;;;5074767;28;20658;-65
2022/12/24 05:33:50;;;;;;;22.98;3.70;;;11.20;99.90;;;;;;5054933;28;20226;-66
2022/12/24 05:36:18;;;;;;;10.95;3.15;;;11.30;99.90;;;;;;5054746;28;20213;-65
2022/12/24 05:38:46;;;;;;;17.42;3.90;;;11.30;99.90;;;;;;5054616;28;20214;-66
2022/12/24 05:41:14;;;;;;;14.68;3.55;;;11.30;99.90;;;;;;5062085;28;20566;-66
2022/12/24 05:43:43;;;;;;;18.25;3.67;;;11.30;99.90;;;;;;5074669;28;20260;-66
2022/12/24 05:46:14;;;;;;;18.42;5.10;;;11.30;99.90;;;;;;5074460;28;20200;-65
2022/12/24 05:48:42;;;;;;;16.90;5.05;;;11.30;99.90;;;;;;5065223;28;20202;-65
2022/12/24 05:51:12;;;;;;;16.65;4.60;;;11.30;99.90;;;;;;5061670;28;20224;-66
2022/12/24 05:53:41;;;;;;;12.25;4.13;;;11.30;99.90;;;;;;5057000;28;20581;-64
2022/12/24 05:56:12;;;;;;;13.63;3.40;;;11.30;99.90;;;;;;5053868;28;20585;-63
2022/12/24 05:58:41;;;;;;;9.48;3.75;;;11.30;99.90;;;;;;5061090;28;20232;-64
2022/12/24 06:01:11;;;;;;;20.35;5.28;;;11.30;99.90;;;;;;5073308;28;20202;-65
2022/12/24 06:03:39;;;;;;;18.20;3.97;;;11.30;99.90;;;;;;5072998;28;20190;-64
2022/12/24 06:06:10;;;;;;;19.08;4.03;;;11.30;99.90;;;;;;5070999;28;20195;-65
2022/12/24 06:08:39;;;;;;;18.35;4.65;;;11.30;99.90;;;;;;5064632;28;20571;-64
2022/12/24 06:11:09;;;;;;;9.48;4.38;;;11.30;99.90;;;;;;5073765;28;20204;-65
2022/12/24 06:13:37;;;;;;;18.25;5.28;;;11.30;99.90;;;;;;5055990;28;20208;-64
2022/12/24 06:16:07;;;;;;;10.75;3.13;;;11.30;99.90;;;;;;5053417;28;20212;-64
2022/12/24 06:18:37;;;;;;;17.13;3.97;;;11.30;99.90;;;;;;5053999;28;20200;-65
2022/12/24 06:21:06;;;;;;;7.90;4.60;;;11.30;99.90;;;;;;5053268;28;20664;-65
2022/12/24 06:23:36;;;;;;;18.55;5.00;;;11.30;99.90;;;;;;5054280;28;20228;-65
2022/12/24 06:26:05;;;;;;;16.15;7.05;;;11.30;99.90;;;;;;5073053;28;20215;-65
2022/12/24 06:28:35;;;;;;;16.00;5.63;;;11.30;99.90;;;;;;5073973;28;20200;-65
2022/12/24 06:31:04;;;;;;;16.95;5.40;;;11.30;99.90;;;;;;5073194;28;20215;-65
2022/12/24 06:33:33;;;;;;;17.95;5.60;;;11.30;99.90;;;;;;5073822;28;20227;-65
2022/12/24 06:36:05;;;;;;;13.88;5.63;;;11.30;99.90;;;;;;5073242;28;20210;-66
2022/12/24 06:38:33;;;;;;;19.75;7.57;;;11.30;99.90;;;;;;5080504;28;20675;-67
2022/12/24 06:41:05;;;;;;;16.38;3.90;;;11.30;99.90;;;;;;5078307;28;20282;-67
2022/12/24 06:43:34;;;;;;;13.68;3.33;;;11.30;99.90;;;;;;5079255;28;20244;-66
2022/12/24 06:46:03;;;;;;;19.15;4.80;;;11.30;99.90;;;;;;5078463;28;20283;-66
2022/12/24 06:48:31;;;;;;;18.25;3.60;;;11.30;99.90;;;;;;5078515;28;20536;-66
2022/12/24 06:51:03;;;;;;;16.58;6.80;;;11.30;99.90;;;;;;5079696;28;20290;-66
2022/12/24 06:53:32;;;;;;;10.13;3.10;;;11.30;99.90;;;;;;5078416;28;20302;-66
2022/12/24 06:56:04;;;;;;;14.93;4.00;;;11.30;99.90;;;;;;5076924;28;20199;-66
2022/12/24 06:58:32;;;;;;;16.35;4.60;;;11.20;99.90;;;;;;5073099;28;20238;-65
2022/12/24 07:01:02;;;;;;;16.17;4.90;;;11.20;99.90;;;;;;5064894;28;20199;-65
2022/12/24 07:03:30;;;;;;;24.55;5.30;;;11.20;99.90;;;;;;5051850;28;20204;-64
2022/12/24 07:05:59;;;;;;;16.45;4.40;;;11.20;99.90;;;;;;5050478;28;20687;-64
2022/12/24 07:08:29;;;;;;;31.23;5.65;;;11.20;99.90;;;;;;5058667;28;20211;-64
2022/12/24 07:10:59;;;;;;;16.00;4.30;;;11.20;99.90;;;;;;5062223;28;20199;-65
2022/12/24 07:13:26;;;;;;;11.90;4.45;;;11.10;99.90;;;;;;5061911;28;20488;-64
2022/12/24 07:15:57;;;;;;;22.65;6.85;;;11.10;99.90;;;;;;5060331;28;20196;-65
2022/12/24 07:18:26;;;;;;;14.80;4.57;;;11.00;99.90;;;;;;5051074;28;20192;-65
2022/12/24 07:20:54;;;;;;;21.25;4.05;;;11.00;99.90;;;;;;5051468;28;20226;-64
2022/12/24 07:23:22;;;;;;;17.65;4.35;;;11.00;99.90;;;;;;5051046;28;20754;-64
2022/12/24 07:25:52;;;;;;;17.92;3.72;;;10.90;99.90;;;;;;5050072;28;20204;-64
2022/12/24 07:28:19;;;;;;;13.85;3.45;;;10.90;99.90;;;;;;5050663;28;20204;-64
2022/12/24 07:30:48;;;;;;;15.18;4.25;;;10.80;99.90;;;;;;5051127;28;20201;-65
2022/12/24 07:33:16;;;;;;;15.65;4.30;;;10.80;99.90;;;;;;5053445;28;20273;-65
2022/12/24 07:35:44;;;;;;;15.77;3.65;;;10.80;99.90;;;;;;5060461;28;20213;-64
2022/12/24 07:38:12;;;;;;;13.05;3.58;;;10.80;99.90;;;;;;5060597;28;20223;-64
2022/12/24 07:40:40;;;;;;;13.13;3.95;;;10.80;99.90;;;;;;5061895;28;20196;-65
2022/12/24 07:43:09;;;;;;;13.10;3.78;;;10.70;99.90;;;;;;5060369;28;20578;-64
2022/12/24 07:45:39;;;;;;;18.40;4.20;;;10.60;99.90;;;;;;5059674;28;20266;-64
2022/12/24 07:48:06;;;;;;;32.33;5.05;;;10.60;99.90;;;;;;5061127;28;20572;-65
2022/12/24 07:50:34;;;;;;;11.00;3.10;;;10.60;99.90;;;;;;5062454;28;20647;-65
2022/12/24 07:53:02;;;;;;;34.67;4.40;;;10.60;99.90;;;;;;5064312;28;20224;-65
2022/12/24 07:55:30;;;;;;;14.57;3.08;;;10.60;99.90;;;;;;5063954;28;20192;-65
2022/12/24 07:57:58;;;;;;;16.13;3.63;;;10.60;99.90;;;;;;5060716;28;20208;-65
2022/12/24 08:00:27;;;;;;;13.57;4.68;;;10.60;99.90;;;;;;5060239;28;20224;-65
2022/12/24 08:02:55;;;;;;;22.83;5.18;;;10.70;99.90;;;;;;5057809;28;20189;-66
2022/12/24 08:05:23;;;;;;;12.00;4.35;;;10.70;99.90;;;;;;5062198;28;20563;-67
2022/12/24 08:07:51;;;;;;;16.20;3.75;;;10.70;99.90;;;;;;5066840;28;20206;-65
2022/12/24 08:10:19;;;;;;;20.35;4.15;;;10.70;99.90;;;;;;5073432;28;20210;-65
2022/12/24 08:12:47;;;;;;;14.32;3.50;;;10.70;99.90;;;;;;5066294;28;20272;-66
2022/12/24 08:15:15;;;;;;;17.67;3.30;;;10.70;99.90;;;;;;5075344;28;20192;-65
2022/12/24 08:17:44;;;;;;;16.38;4.10;;;10.80;99.90;;;;;;5074260;28;20222;-65
2022/12/24 08:20:14;;;;;;;14.63;4.13;;;10.70;99.90;;;;;;5078429;28;20210;-66
2022/12/24 08:22:43;;;;;;;20.77;4.05;;;10.80;99.90;;;;;;5064161;28;20242;-64
2022/12/24 08:25:11;;;;;;;11.13;3.35;;;10.80;99.90;;;;;;5075216;28;20314;-65
2022/12/24 08:27:39;;;;;;;14.20;3.92;;;10.70;99.90;;;;;;5067266;28;20313;-65
2022/12/24 08:30:08;;;;;;;21.33;3.92;;;10.70;99.90;;;;;;5073048;28;20204;-65
2022/12/24 08:32:36;;;;;;;12.68;3.50;;;10.60;99.90;;;;;;5074311;28;20686;-65
2022/12/24 08:35:06;;;;;;;17.95;4.00;;;10.60;99.90;;;;;;5075206;28;20585;-67
2022/12/24 08:37:34;;;;;;;18.23;4.80;;;10.60;99.90;;;;;;5074655;28;20199;-65
2022/12/24 08:40:02;;;;;;;22.90;5.00;;;10.60;99.90;;;;;;5062150;28;20208;-65
2022/12/24 08:42:30;;;;;;;18.15;4.35;;;10.60;99.90;;;;;;5075699;28;20216;-66
2022/12/24 08:44:58;;;;;;;11.48;3.72;;;10.60;99.90;;;;;;5075228;28;20218;-66
2022/12/24 08:47:27;;;;;;;13.27;3.70;;;10.60;99.90;;;;;;5060198;28;20211;-65
2022/12/24 08:49:54;;;;;;;11.88;4.47;;;10.70;99.90;;;;;;5072035;28;20207;-65
2022/12/24 08:52:24;;;;;;;13.82;3.92;;;10.70;99.90;;;;;;5061356;28;20564;-65
2022/12/24 08:54:52;;;;;;;11.57;3.58;;;10.70;99.90;;;;;;5067900;28;20215;-65
2022/12/24 08:57:20;;;;;;;18.40;4.22;;;10.80;99.90;;;;;;5068573;28;20209;-65
2022/12/24 08:59:47;;;;;;;22.70;3.95;;;10.80;99.90;;;;;;5055382;28;20237;-65
2022/12/24 09:02:15;;;;;;;14.80;4.28;;;10.80;99.90;;;;;;5059738;28;20200;-65
2022/12/24 09:04:43;;;;;;;14.13;4.70;;;10.70;99.90;;;;;;5065668;28;20207;-65
2022/12/24 09:07:11;;;;;;;18.33;3.28;;;10.80;99.90;;;;;;5054992;28;20222;-65
2022/12/24 09:09:41;;;;;;;15.93;4.22;;;10.80;99.90;;;;;;5061852;28;20207;-65
2022/12/24 09:12:09;;;;;;;19.38;3.58;;;10.80;99.90;;;;;;5055522;28;20205;-65
2022/12/24 09:14:37;;;;;;;14.63;4.45;;;10.90;99.90;;;;;;5061829;28;20230;-65
2022/12/24 09:17:05;;;;;;;25.52;4.40;;;10.90;99.90;;;;;;5065080;28;20204;-65
2022/12/24 09:19:34;;;;;;;21.55;4.10;;;10.90;99.90;;;;;;5067730;28;20208;-65
2022/12/24 09:22:02;;;;;;;19.58;4.78;;;10.90;99.90;;;;;;5058635;28;20227;-65
2022/12/24 09:24:31;;;;;;;15.90;4.20;;;10.80;99.90;;;;;;5066673;28;20225;-65
2022/12/24 09:27:01;;;;;;;21.95;4.85;;;10.90;99.90;;;;;;5066210;28;20609;-65
2022/12/24 09:29:29;;;;;;;15.40;4.22;;;10.80;99.90;;;;;;5054012;28;20196;-66
2022/12/24 09:31:57;;;;;;;26.67;3.95;;;10.80;99.90;;;;;;5053627;28;20204;-65
2022/12/24 09:34:25;;;;;;;16.25;4.50;;;10.80;99.90;;;;;;5052153;28;20247;-65
2022/12/24 09:36:53;;;;;;;21.27;6.20;;;10.90;99.90;;;;;;5058079;28;20205;-65
2022/12/24 09:39:21;;;;;;;15.27;3.45;;;10.90;99.90;;;;;;5059083;28;20210;-65
2022/12/24 09:42:00;;;;;;;16.83;4.63;;;10.90;99.90;;;;;;5067687;28;20210;-65
2022/12/24 09:44:38;;;;;;;10.75;3.72;;;11.00;99.90;;;;;;5065412;28;20203;-65
2022/12/24 09:47:15;;;;;;;19.23;4.47;;;11.00;99.90;;;;;;5058809;28;20201;-65
2022/12/24 09:49:47;;;;;;;23.67;6.43;;;11.10;99.90;;;;;;5068462;28;20658;-65
2022/12/24 09:52:27;;;;;;;21.08;4.38;;;11.10;99.90;;;;;;5066489;28;20228;-65
2022/12/24 09:55:02;;;;;;;15.90;3.70;;;11.20;99.90;;;;;;5057001;28;20208;-65
2022/12/24 09:57:36;;;;;;;11.55;3.28;;;11.20;99.90;;;;;;5060480;28;20252;-65
2022/12/24 10:00:16;;;;;;;15.60;4.53;;;11.20;99.90;;;;;;5061890;28;20228;-65
2022/12/24 10:02:44;;;;;;;10.55;3.92;;;11.20;99.90;;;;;;5068925;28;20195;-65
2022/12/24 10:05:15;;;;;;;17.15;3.60;;;11.30;99.90;;;;;;5055956;28;20204;-65
2022/12/24 10:07:50;;;;;;;15.47;3.43;;;11.20;99.90;;;;;;5059911;28;20600;-65
2022/12/24 10:10:27;;;;;;;13.57;4.05;;;11.20;99.90;;;;;;5060322;28;20617;-65
2022/12/24 10:13:04;;;;;;;16.90;3.80;;;11.20;99.90;;;;;;5063365;28;20188;-66
2022/12/24 10:15:39;;;;;;;11.98;3.10;;;11.20;99.90;;;;;;5070090;28;20690;-66
2022/12/24 10:18:24;;;;;;;14.23;4.07;;;11.10;99.90;;;;;;5061514;28;20198;-65
2022/12/24 10:20:59;;;;;;;12.02;4.05;;;11.10;99.90;;;;;;5057102;28;20196;-63
2022/12/24 10:23:34;;;;;;;17.48;4.30;;;11.00;99.90;;;;;;5072446;28;20226;-64
2022/12/24 10:26:11;;;;;;;19.40;3.78;;;11.10;99.90;;;;;;5092132;28;20216;-64
2022/12/24 10:28:46;;;;;;;13.07;5.05;;;11.20;99.90;;;;;;5068112;28;20644;-65
2022/12/24 10:31:15;;;;;;;18.42;3.47;;;11.20;99.90;;;;;;5059097;28;20198;-65
2022/12/24 10:33:45;;;;;;;14.00;3.90;;;11.20;99.90;;;;;;5053241;28;20224;-65
2022/12/24 10:36:17;;;;;;;12.77;3.40;;;11.20;99.90;;;;;;5054197;28;20654;-65
2022/12/24 10:38:46;;;;;;;16.98;3.38;;;11.20;99.90;;;;;;5071768;28;20200;-65
2022/12/24 10:41:15;;;;;;;10.70;3.58;;;11.20;99.90;;;;;;5065456;28;20203;-65
2022/12/24 10:43:46;;;;;;;31.10;5.05;;;11.10;99.90;;;;;;5064472;28;20636;-65
2022/12/24 10:46:19;;;;;;;16.73;3.53;;;11.00;99.90;;;;;;5062187;28;20194;-65
2022/12/24 10:48:52;;;;;;;22.95;4.45;;;11.10;99.90;;;;;;5056827;28;20192;-65
2022/12/24 10:51:28;;;;;;;13.88;4.10;;;11.10;99.90;;;;;;5052651;28;20195;-67
2022/12/24 10:54:01;;;;;;;29.08;4.55;;;11.20;99.90;;;;;;5066350;28;20204;-65
2022/12/24 10:56:29;;;;;;;24.33;4.07;;;11.30;99.90;;;;;;5061290;28;20215;-65
2022/12/24 10:58:57;;;;;;;13.68;4.20;;;11.40;99.90;;;;;;5058709;28;20258;-65
2022/12/24 11:01:45;;;;;;;20.27;4.03;;;11.40;99.90;;;;;;5059620;28;20196;-65
2022/12/24 11:04:18;;;;;;;9.50;3.50;;;11.50;99.90;;;;;;5069842;28;20582;-65
2022/12/24 11:06:56;;;;;;;16.67;4.07;;;11.60;99.90;;;;;;5065215;28;20595;-65
2022/12/24 11:09:28;;;;;;;14.73;4.50;;;11.60;99.90;;;;;;5072977;28;20626;-65
2022/12/24 11:11:57;;;;;;;20.08;4.82;;;11.60;99.90;;;;;;5052067;28;20564;-66
2022/12/24 11:14:33;;;;;;;14.65;4.28;;;11.70;99.90;;;;;;5065666;28;20208;-65
2022/12/24 11:17:04;;;;;;;19.13;4.38;;;11.60;99.90;;;;;;5051675;28;20188;-65
2022/12/24 11:19:35;;;;;;;21.20;5.03;;;11.60;99.90;;;;;;5056394;28;20192;-65
2022/12/24 11:22:05;;;;;;;16.52;5.15;;;11.70;99.90;;;;;;5071728;28;20646;-65
2022/12/24 11:24:35;;;;;;;17.35;5.22;;;11.70;99.90;;;;;;5059445;28;20532;-65
2022/12/24 11:27:29;;;;;;;12.30;4.00;;;11.70;99.90;;;;;;5065179;28;20215;-65
2022/12/24 11:30:18;;;;;;;14.47;4.70;;;11.80;99.90;;;;;;5062551;28;21089;-65
2022/12/24 11:32:49;;;;;;;18.77;5.13;;;11.90;99.90;;;;;;5068943;28;20581;-65
2022/12/24 11:35:20;;;;;;;17.70;5.30;;;11.90;99.90;;;;;;5072833;28;21244;-66
2022/12/24 11:37:48;;;;;;;17.13;4.87;;;11.90;99.90;;;;;;5071597;28;20600;-66
2022/12/24 11:40:21;;;;;;;13.03;4.43;;;11.90;99.90;;;;;;5071726;28;20622;-66
2022/12/24 11:42:52;;;;;;;26.88;3.78;;;12.00;99.90;;;;;;5070556;28;20569;-66
2022/12/24 11:45:24;;;;;;;14.57;4.60;;;12.10;99.90;;;;;;5066331;28;20547;-66
2022/12/24 11:47:54;;;;;;;29.02;4.53;;;12.50;99.90;;;;;;5070416;28;20584;-66
2022/12/24 11:50:25;;;;;;;15.27;3.93;;;12.60;99.90;;;;;;5063809;28;20193;-66
2022/12/24 11:53:00;;;;;;;12.27;3.43;;;12.60;99.90;;;;;;5064496;28;21149;-67
2022/12/24 11:55:39;;;;;;;16.93;4.20;;;12.80;99.90;;;;;;5071847;28;20629;-66
2022/12/24 11:58:18;;;;;;;20.57;3.93;;;12.70;99.90;;;;;;5071832;28;20585;-66
2022/12/24 12:00:49;;;;;;;22.13;4.60;;;12.50;99.90;;;;;;5059903;28;20593;-66
2022/12/24 12:03:31;;;;;;;19.93;5.13;;;12.60;99.90;;;;;;5049572;28;20560;-66
2022/12/24 12:06:03;;;;;;;26.47;5.27;;;12.40;99.90;;;;;;5065196;28;20573;-66
2022/12/24 12:08:33;;;;;;;27.33;5.00;;;12.40;99.90;;;;;;5054409;28;20580;-66
2022/12/24 12:11:08;;;;;;;19.35;4.97;;;12.40;99.90;;;;;;5052960;28;20664;-66
2022/12/24 12:13:38;;;;;;;13.73;3.57;;;12.30;99.90;;;;;;5070388;28;20208;-66
2022/12/24 12:16:16;;;;;;;17.07;3.87;;;12.40;99.90;;;;;;5056667;28;20647;-64
2022/12/24 12:18:51;;;;;;;12.73;3.80;;;12.30;99.90;;;;;;5057975;28;20599;-64
2022/12/24 12:21:23;;;;;;;10.07;3.90;;;12.30;99.90;;;;;;5065779;28;20598;-64
2022/12/24 12:23:54;;;;;;;8.13;2.83;;;12.20;99.90;;;;;;5064442;28;20572;-65
2022/12/24 12:26:25;;;;;;;8.77;2.85;;;12.20;99.90;;;;;;5051669;28;20597;-65
2022/12/24 12:28:57;;;;;;;16.20;3.63;;;12.10;99.90;;;;;;5059612;28;20203;-64
2022/12/24 12:31:28;;;;;;;17.15;4.82;;;12.10;99.90;;;;;;5071341;28;20936;-64
2022/12/24 12:34:00;;;;;;;10.80;4.03;;;12.10;99.90;;;;;;5063957;28;20201;-65
2022/12/24 12:36:33;;;;;;;15.77;4.10;;;12.10;99.90;;;;;;5051604;28;20700;-63
2022/12/24 12:39:01;;;;;;;15.70;4.57;;;12.10;99.90;;;;;;5056193;28;20751;-63
2022/12/24 12:41:44;;;;;;;18.60;3.87;;;12.10;99.90;;;;;;5052481;28;20662;-63
2022/12/24 12:44:32;;;;;;;11.10;3.27;;;12.10;99.90;;;;;;5053517;28;20606;-63
2022/12/24 12:47:13;;;;;;;11.43;3.00;;;12.30;99.90;;;;;;5049031;28;20597;-64
2022/12/24 12:49:52;;;;;;;19.80;4.77;;;12.30;99.90;;;;;;5065339;28;20581;-64
2022/12/24 12:52:30;;;;;;;12.97;3.93;;;12.30;99.90;;;;;;5071647;28;20545;-63
2022/12/24 12:55:10;;;;;;;9.33;3.43;;;12.40;99.90;;;;;;5056052;28;20621;-63
2022/12/24 12:57:40;;;;;;;14.80;3.10;;;12.30;99.90;;;;;;5051749;28;20584;-63
2022/12/24 13:00:11;;;;;;;14.70;5.10;;;12.30;99.90;;;;;;5069863;28;20657;-63
2022/12/24 13:03:00;;;;;;;14.90;4.70;;;12.30;99.90;;;;;;5068984;28;20636;-63
2022/12/24 13:05:52;;;;;;;14.70;3.97;;;12.30;99.90;;;;;;5074704;28;20901;-64